Saturday, October 20, 2018, 9:36 PM EDT
Back to Local

KBGR, Bangor Int'l Airport

Location: Bangor, ME, United States Lat: 44.8
Local Time: 9:36 PM EDT ( 1:36 GMT) Lon: -68.817
Time Zone: US/Eastern Elev: 193 ft

Show me the last for .
Show Decoded

2018-10-20 20:53 METAR KBGR 210053Z 00000KT 10SM FEW055 07/04 A2952 RMK AO2 SLP996 T00670039 =
2018-10-20 19:53 METAR KBGR 202353Z 31009G15KT 10SM FEW055 11/04 A2950 RMK AO2 SLP988 T01060044
                 10178 20089 53015 =
2018-10-20 18:53 METAR KBGR 202253Z 20004KT 10SM FEW055 12/04 A2949 RMK AO2 SLP983 T01220044 =
2018-10-20 17:53 METAR KBGR 202153Z 20006KT 10SM FEW055 FEW075 14/04 A2946 RMK AO2 SLP976
                 T01390044 =
2018-10-20 16:53 METAR KBGR 202053Z 23008G15KT 10SM FEW055 FEW075 16/04 A2946 RMK AO2 SLP974
                 T01610039 55003 =
2018-10-20 15:53 METAR KBGR 201953Z 24011KT 10SM SCT055 SCT075 17/04 A2945 RMK AO2 SLP971
                 T01720044 =
2018-10-20 14:53 METAR KBGR 201853Z 23008G18KT 10SM FEW030 BKN055 17/04 A2945 RMK AO2 SLP973
                 T01720044 =
2018-10-20 13:53 METAR KBGR 201753Z 23012G19KT 10SM FEW030 BKN050 17/06 A2947 RMK AO2 SLP977
                 60000 T01670056 10172 20122 56017 =
2018-10-20 12:53 METAR KBGR 201653Z 21013G22KT 10SM FEW030 BKN048 BKN100 17/06 A2948 RMK AO2
                 SLP983 T01670061 =
2018-10-20 11:53 METAR KBGR 201553Z 23013G22KT 10SM BKN040 BKN075 BKN100 17/06 A2949 RMK AO2
                 SLP986 T01670061 =
2018-10-20 10:53 METAR KBGR 201453Z 22011G24KT 10SM BKN038 BKN075 BKN120 15/07 A2952 RMK AO2
                 SLP994 60000 T01500067 58014 =
2018-10-20 09:53 METAR KBGR 201353Z 20012G22KT 10SM FEW040 BKN080 BKN120 14/08 A2953 RMK AO2
                 RAB13E35 SLP999 P0000 T01390083 =
2018-10-20 08:53 METAR KBGR 201253Z 19011G20KT 10SM BKN050 OVC070 12/08 A2956 RMK AO2 RAB1158E28
                 SLP009 P0000 T01220078 =
2018-10-20 07:53 METAR KBGR 201153Z 19012G18KT 10SM BKN050 OVC065 12/07 A2956 RMK AO2 RAE14B41E53
                 SLP009 P0000 60000 T01220067 10122 20106 57021 =
2018-10-20 06:53 METAR KBGR 201053Z 20016G23KT 10SM -RA OVC090 12/06 A2958 RMK AO2 RAB53 SLP016
                 P0000 T01220056 =
2018-10-20 05:53 METAR KBGR 200953Z 20015G22KT 10SM OVC110 12/05 A2960 RMK AO2 SLP024 T01170050 =
2018-10-20 04:53 METAR KBGR 200853Z 20012G18KT 10SM OVC110 11/04 A2962 RMK AO2 SLP030 T01110044
                 56019 =
2018-10-20 03:53 METAR KBGR 200753Z 20010KT 10SM SCT120 BKN250 11/04 A2963 RMK AO2 SLP033
                 T01110044 =
2018-10-20 02:53 METAR KBGR 200653Z 18012KT 10SM SCT120 OVC250 11/06 A2965 RMK AO2 SLP039
                 T01110061 =
2018-10-20 01:53 METAR KBGR 200553Z 17006KT 10SM SCT120 OVC250 11/07 A2968 RMK AO2 PRESFR SLP049
                 T01110067 10111 20083 58042 =
2018-10-20 00:53 METAR KBGR 200453Z 19005KT 10SM SCT120 OVC250 11/07 A2974 RMK AO2 SLP069
                 T01110067 401171006 =
2018-10-19 23:53 METAR KBGR 200353Z 20008KT 10SM FEW120 OVC250 11/07 A2977 RMK AO2 SLP082
                 T01060072 =
2018-10-19 22:53 METAR KBGR 200253Z 18007KT 10SM BKN250 10/07 A2980 RMK AO2 SLP091 T01000067
                 56026 =
2018-10-19 21:53 METAR KBGR 200153Z 17010KT 10SM BKN250 09/06 A2982 RMK AO2 SLP098 T00940056 =

Support USWX by starting your Amazon purchase here.